sensor_id;sensor_type;location;lat;lon;timestamp;pressure;altitude;pressure_sealevel;temperature;humidity
33286;BME280;19656;50.096;20.014;2023-02-18T00:01:37;98581.09;;;11.69;67.41
33286;BME280;19656;50.096;20.014;2023-02-18T00:06:41;98572.80;;;11.73;67.83
33286;BME280;19656;50.096;20.014;2023-02-18T00:11:44;98565.50;;;11.75;67.88
33286;BME280;19656;50.096;20.014;2023-02-18T00:16:48;98563.05;;;11.75;68.27
33286;BME280;19656;50.096;20.014;2023-02-18T00:21:51;98564.94;;;11.74;68.39
33286;BME280;19656;50.096;20.014;2023-02-18T00:26:54;98562.34;;;11.75;68.20
33286;BME280;19656;50.096;20.014;2023-02-18T00:31:58;98564.10;;;11.77;67.94
33286;BME280;19656;50.096;20.014;2023-02-18T00:37:01;98557.95;;;11.79;67.98
33286;BME280;19656;50.096;20.014;2023-02-18T00:42:05;98563.65;;;11.76;68.00
33286;BME280;19656;50.096;20.014;2023-02-18T00:47:09;98562.55;;;11.72;68.01
33286;BME280;19656;50.096;20.014;2023-02-18T00:52:12;98560.48;;;11.69;68.28
33286;BME280;19656;50.096;20.014;2023-02-18T00:57:16;98563.95;;;11.70;68.44
33286;BME280;19656;50.096;20.014;2023-02-18T01:02:19;98572.51;;;11.77;67.92
33286;BME280;19656;50.096;20.014;2023-02-18T01:07:22;98592.33;;;11.80;68.01
33286;BME280;19656;50.096;20.014;2023-02-18T01:12:26;98612.45;;;11.72;68.33
33286;BME280;19656;50.096;20.014;2023-02-18T01:17:30;98635.39;;;11.68;68.59
33286;BME280;19656;50.096;20.014;2023-02-18T01:22:33;98653.02;;;11.65;69.19
33286;BME280;19656;50.096;20.014;2023-02-18T01:27:37;98675.84;;;11.36;68.63
33286;BME280;19656;50.096;20.014;2023-02-18T01:32:44;98664.30;;;11.18;68.80
33286;BME280;19656;50.096;20.014;2023-02-18T01:37:48;98659.45;;;11.04;68.32
33286;BME280;19656;50.096;20.014;2023-02-18T01:42:52;98651.34;;;10.93;68.49
33286;BME280;19656;50.096;20.014;2023-02-18T01:47:56;98658.55;;;10.84;66.91
33286;BME280;19656;50.096;20.014;2023-02-18T01:53:00;98667.61;;;10.71;65.59
33286;BME280;19656;50.096;20.014;2023-02-18T01:58:06;98659.04;;;10.61;65.89
33286;BME280;19656;50.096;20.014;2023-02-18T02:03:09;98672.78;;;10.58;65.05
33286;BME280;19656;50.096;20.014;2023-02-18T02:08:13;98671.36;;;10.52;64.46
33286;BME280;19656;50.096;20.014;2023-02-18T02:19:03;98668.17;;;10.47;62.64
33286;BME280;19656;50.096;20.014;2023-02-18T02:35:09;98670.38;;;10.38;58.59
33286;BME280;19656;50.096;20.014;2023-02-18T02:40:30;98679.97;;;10.35;57.03
33286;BME280;19656;50.096;20.014;2023-02-18T02:45:53;98690.33;;;10.26;55.49
33286;BME280;19656;50.096;20.014;2023-02-18T02:51:53;98684.55;;;10.16;54.94
33286;BME280;19656;50.096;20.014;2023-02-18T03:23:28;98749.78;;;10.13;46.27
33286;BME280;19656;50.096;20.014;2023-02-18T03:28:35;98754.41;;;10.13;45.86
33286;BME280;19656;50.096;20.014;2023-02-18T03:33:48;98758.52;;;10.15;46.53
33286;BME280;19656;50.096;20.014;2023-02-18T03:39:30;98763.34;;;10.15;46.61
33286;BME280;19656;50.096;20.014;2023-02-18T03:44:35;98765.85;;;10.09;46.56
33286;BME280;19656;50.096;20.014;2023-02-18T03:49:38;98767.93;;;10.10;47.87
33286;BME280;19656;50.096;20.014;2023-02-18T03:54:42;98771.09;;;10.08;48.58
33286;BME280;19656;50.096;20.014;2023-02-18T03:59:45;98772.81;;;10.09;49.90
33286;BME280;19656;50.096;20.014;2023-02-18T04:04:49;98770.01;;;10.13;51.39
33286;BME280;19656;50.096;20.014;2023-02-18T04:09:52;98781.54;;;10.13;52.98
33286;BME280;19656;50.096;20.014;2023-02-18T04:14:55;98783.27;;;10.11;53.29
33286;BME280;19656;50.096;20.014;2023-02-18T04:19:59;98786.92;;;10.07;52.86
33286;BME280;19656;50.096;20.014;2023-02-18T04:25:03;98787.30;;;10.06;51.41
33286;BME280;19656;50.096;20.014;2023-02-18T04:30:07;98790.64;;;10.04;51.05
33286;BME280;19656;50.096;20.014;2023-02-18T04:35:11;98792.89;;;10.02;50.71
33286;BME280;19656;50.096;20.014;2023-02-18T04:40:15;98794.19;;;10.01;51.68
33286;BME280;19656;50.096;20.014;2023-02-18T04:45:18;98789.15;;;10.03;52.21
33286;BME280;19656;50.096;20.014;2023-02-18T04:50:22;98788.50;;;10.02;53.17
33286;BME280;19656;50.096;20.014;2023-02-18T04:55:25;98796.02;;;10.01;53.77
33286;BME280;19656;50.096;20.014;2023-02-18T05:00:29;98804.30;;;9.95;53.08
33286;BME280;19656;50.096;20.014;2023-02-18T05:05:33;98805.08;;;9.94;53.18
33286;BME280;19656;50.096;20.014;2023-02-18T05:10:38;98806.46;;;9.92;53.80
33286;BME280;19656;50.096;20.014;2023-02-18T05:15:41;98812.79;;;9.87;53.13
33286;BME280;19656;50.096;20.014;2023-02-18T05:20:45;98814.52;;;9.82;51.17
33286;BME280;19656;50.096;20.014;2023-02-18T05:25:48;98817.90;;;9.77;48.38
33286;BME280;19656;50.096;20.014;2023-02-18T05:30:52;98820.09;;;9.67;45.10
33286;BME280;19656;50.096;20.014;2023-02-18T05:35:56;98815.92;;;9.65;43.85
33286;BME280;19656;50.096;20.014;2023-02-18T05:40:59;98828.91;;;9.59;43.39
33286;BME280;19656;50.096;20.014;2023-02-18T05:46:03;98829.52;;;9.55;41.55
33286;BME280;19656;50.096;20.014;2023-02-18T05:51:06;98827.43;;;9.51;41.23
33286;BME280;19656;50.096;20.014;2023-02-18T05:56:10;98829.27;;;9.50;41.12
33286;BME280;19656;50.096;20.014;2023-02-18T06:01:14;98832.90;;;9.46;41.72
33286;BME280;19656;50.096;20.014;2023-02-18T06:06:17;98839.89;;;9.41;42.35
33286;BME280;19656;50.096;20.014;2023-02-18T06:11:21;98848.78;;;9.44;42.99
33286;BME280;19656;50.096;20.014;2023-02-18T06:16:25;98843.94;;;9.42;41.45
33286;BME280;19656;50.096;20.014;2023-02-18T06:21:29;98842.80;;;9.46;41.90
33286;BME280;19656;50.096;20.014;2023-02-18T06:26:33;98847.88;;;9.44;41.81
33286;BME280;19656;50.096;20.014;2023-02-18T06:31:37;98845.02;;;9.42;40.32
33286;BME280;19656;50.096;20.014;2023-02-18T06:36:42;98840.19;;;9.45;40.72
33286;BME280;19656;50.096;20.014;2023-02-18T06:41:45;98837.84;;;9.52;40.96
33286;BME280;19656;50.096;20.014;2023-02-18T06:46:49;98835.63;;;9.53;40.56
33286;BME280;19656;50.096;20.014;2023-02-18T06:51:53;98848.62;;;9.55;40.27
33286;BME280;19656;50.096;20.014;2023-02-18T06:56:56;98858.41;;;9.60;39.66
33286;BME280;19656;50.096;20.014;2023-02-18T07:02:00;98862.64;;;9.66;38.67
33286;BME280;19656;50.096;20.014;2023-02-18T07:07:04;98870.14;;;9.68;38.03
33286;BME280;19656;50.096;20.014;2023-02-18T07:12:07;98876.26;;;9.67;37.86
33286;BME280;19656;50.096;20.014;2023-02-18T07:17:11;98870.30;;;9.71;38.08
33286;BME280;19656;50.096;20.014;2023-02-18T07:22:15;98869.59;;;9.74;38.04
33286;BME280;19656;50.096;20.014;2023-02-18T07:27:19;98873.77;;;9.79;37.36
33286;BME280;19656;50.096;20.014;2023-02-18T07:32:23;98880.46;;;9.79;37.01
33286;BME280;19656;50.096;20.014;2023-02-18T07:37:28;98870.12;;;9.74;36.36
33286;BME280;19656;50.096;20.014;2023-02-18T07:42:31;98856.03;;;9.73;36.40
33286;BME280;19656;50.096;20.014;2023-02-18T07:47:35;98856.52;;;9.77;36.56
33286;BME280;19656;50.096;20.014;2023-02-18T07:52:39;98864.88;;;9.76;36.50
33286;BME280;19656;50.096;20.014;2023-02-18T07:57:43;98858.54;;;9.79;36.24
33286;BME280;19656;50.096;20.014;2023-02-18T08:03:04;98855.88;;;9.79;36.70
33286;BME280;19656;50.096;20.014;2023-02-18T08:08:13;98855.37;;;9.75;36.89
33286;BME280;19656;50.096;20.014;2023-02-18T08:13:17;98861.39;;;9.84;36.92
33286;BME280;19656;50.096;20.014;2023-02-18T08:18:22;98861.17;;;9.90;36.30
33286;BME280;19656;50.096;20.014;2023-02-18T08:23:26;98867.29;;;9.92;35.95
33286;BME280;19656;50.096;20.014;2023-02-18T08:28:29;98868.52;;;9.86;36.29
33286;BME280;19656;50.096;20.014;2023-02-18T08:33:33;98866.75;;;9.86;36.78
33286;BME280;19656;50.096;20.014;2023-02-18T08:38:36;98869.48;;;9.90;36.57
33286;BME280;19656;50.096;20.014;2023-02-18T08:43:41;98872.02;;;9.92;36.38
33286;BME280;19656;50.096;20.014;2023-02-18T08:48:45;98869.64;;;10.02;36.08
33286;BME280;19656;50.096;20.014;2023-02-18T08:53:49;98875.86;;;10.02;35.71
33286;BME280;19656;50.096;20.014;2023-02-18T08:58:52;98882.90;;;10.03;36.05
33286;BME280;19656;50.096;20.014;2023-02-18T09:03:56;98884.45;;;10.09;36.02
33286;BME280;19656;50.096;20.014;2023-02-18T09:09:00;98880.01;;;10.12;34.75
33286;BME280;19656;50.096;20.014;2023-02-18T09:14:03;98876.13;;;10.12;35.54
33286;BME280;19656;50.096;20.014;2023-02-18T09:19:07;98871.66;;;10.18;35.91
33286;BME280;19656;50.096;20.014;2023-02-18T09:24:11;98880.38;;;10.17;35.66
33286;BME280;19656;50.096;20.014;2023-02-18T09:29:15;98888.31;;;10.15;35.45
33286;BME280;19656;50.096;20.014;2023-02-18T09:34:20;98884.05;;;10.15;35.52
33286;BME280;19656;50.096;20.014;2023-02-18T09:39:24;98883.58;;;10.14;35.83
33286;BME280;19656;50.096;20.014;2023-02-18T09:44:40;98891.21;;;10.11;36.04
33286;BME280;19656;50.096;20.014;2023-02-18T09:49:52;98877.20;;;10.17;36.47
33286;BME280;19656;50.096;20.014;2023-02-18T09:54:56;98876.45;;;10.27;37.41
33286;BME280;19656;50.096;20.014;2023-02-18T10:00:22;98878.97;;;10.32;36.80
33286;BME280;19656;50.096;20.014;2023-02-18T10:05:28;98863.51;;;10.35;37.44
33286;BME280;19656;50.096;20.014;2023-02-18T10:10:38;98862.91;;;10.33;37.36
33286;BME280;19656;50.096;20.014;2023-02-18T10:15:43;98852.70;;;10.40;37.35
33286;BME280;19656;50.096;20.014;2023-02-18T10:20:48;98844.48;;;10.47;37.74
33286;BME280;19656;50.096;20.014;2023-02-18T10:25:53;98833.63;;;10.53;38.53
33286;BME280;19656;50.096;20.014;2023-02-18T10:31:04;98826.73;;;10.61;39.05
33286;BME280;19656;50.096;20.014;2023-02-18T10:42:03;98824.77;;;10.69;40.31
33286;BME280;19656;50.096;20.014;2023-02-18T10:52:33;98817.05;;;10.73;39.87
33286;BME280;19656;50.096;20.014;2023-02-18T10:57:52;98821.60;;;10.69;39.70
33286;BME280;19656;50.096;20.014;2023-02-18T11:08:27;98808.69;;;10.49;40.94
33286;BME280;19656;50.096;20.014;2023-02-18T11:13:31;98810.77;;;10.45;42.69
33286;BME280;19656;50.096;20.014;2023-02-18T11:18:43;98808.58;;;10.43;43.88
33286;BME280;19656;50.096;20.014;2023-02-18T11:23:51;98792.95;;;10.29;44.15
33286;BME280;19656;50.096;20.014;2023-02-18T11:29:04;98791.33;;;10.18;45.10
33286;BME280;19656;50.096;20.014;2023-02-18T11:34:14;98788.77;;;9.97;46.40
33286;BME280;19656;50.096;20.014;2023-02-18T11:39:23;98780.17;;;9.90;47.12
33286;BME280;19656;50.096;20.014;2023-02-18T11:44:32;98769.13;;;10.00;47.50
33286;BME280;19656;50.096;20.014;2023-02-18T11:49:36;98762.52;;;10.06;47.08
33286;BME280;19656;50.096;20.014;2023-02-18T11:54:40;98762.08;;;10.10;47.29
33286;BME280;19656;50.096;20.014;2023-02-18T11:59:43;98766.11;;;10.16;47.57
33286;BME280;19656;50.096;20.014;2023-02-18T12:10:24;98761.96;;;10.20;49.77
33286;BME280;19656;50.096;20.014;2023-02-18T12:15:49;98761.80;;;9.98;51.01
33286;BME280;19656;50.096;20.014;2023-02-18T12:21:07;98750.33;;;9.83;51.85
33286;BME280;19656;50.096;20.014;2023-02-18T12:31:47;98749.63;;;9.78;53.07
33286;BME280;19656;50.096;20.014;2023-02-18T12:37:02;98732.98;;;9.72;53.62
33286;BME280;19656;50.096;20.014;2023-02-18T12:42:25;98732.38;;;9.67;54.27
33286;BME280;19656;50.096;20.014;2023-02-18T12:53:12;98708.82;;;9.53;54.98
33286;BME280;19656;50.096;20.014;2023-02-18T12:58:45;98697.85;;;9.42;55.91
33286;BME280;19656;50.096;20.014;2023-02-18T13:15:22;98646.61;;;9.54;56.99
33286;BME280;19656;50.096;20.014;2023-02-18T13:20:43;98649.98;;;9.49;57.73
33286;BME280;19656;50.096;20.014;2023-02-18T13:25:51;98635.40;;;9.49;58.16
33286;BME280;19656;50.096;20.014;2023-02-18T13:31:38;98629.55;;;9.49;58.78
33286;BME280;19656;50.096;20.014;2023-02-18T13:42:35;98592.81;;;9.43;59.68
33286;BME280;19656;50.096;20.014;2023-02-18T13:47:44;98586.93;;;9.54;59.85
33286;BME280;19656;50.096;20.014;2023-02-18T13:52:48;98583.65;;;9.64;59.57
33286;BME280;19656;50.096;20.014;2023-02-18T13:57:53;98577.15;;;9.63;59.39
33286;BME280;19656;50.096;20.014;2023-02-18T14:03:00;98557.19;;;9.65;59.36
33286;BME280;19656;50.096;20.014;2023-02-18T14:08:13;98548.30;;;9.65;59.49
33286;BME280;19656;50.096;20.014;2023-02-18T14:13:18;98531.94;;;9.61;59.72
33286;BME280;19656;50.096;20.014;2023-02-18T14:19:22;98517.41;;;9.56;60.07
33286;BME280;19656;50.096;20.014;2023-02-18T14:28:59;98503.85;;;9.38;60.92
33286;BME280;19656;50.096;20.014;2023-02-18T14:50:01;98451.44;;;9.17;62.11
33286;BME280;19656;50.096;20.014;2023-02-18T14:55:10;98443.71;;;9.19;62.37
33286;BME280;19656;50.096;20.014;2023-02-18T15:00:21;98430.23;;;9.09;62.74
33286;BME280;19656;50.096;20.014;2023-02-18T15:05:27;98412.00;;;9.09;63.12
33286;BME280;19656;50.096;20.014;2023-02-18T15:10:41;98409.41;;;9.00;63.45
33286;BME280;19656;50.096;20.014;2023-02-18T15:15:48;98394.33;;;8.95;63.66
33286;BME280;19656;50.096;20.014;2023-02-18T15:20:53;98390.40;;;8.85;64.40
33286;BME280;19656;50.096;20.014;2023-02-18T15:25:56;98371.83;;;8.85;64.52
33286;BME280;19656;50.096;20.014;2023-02-18T15:31:02;98349.23;;;8.84;64.73
33286;BME280;19656;50.096;20.014;2023-02-18T15:36:06;98337.44;;;8.86;64.85
33286;BME280;19656;50.096;20.014;2023-02-18T15:41:21;98321.92;;;8.91;65.09
33286;BME280;19656;50.096;20.014;2023-02-18T15:46:25;98313.09;;;8.93;65.18
33286;BME280;19656;50.096;20.014;2023-02-18T15:51:30;98294.30;;;8.91;65.35
33286;BME280;19656;50.096;20.014;2023-02-18T15:57:08;98275.12;;;8.89;65.75
33286;BME280;19656;50.096;20.014;2023-02-18T16:02:21;98260.05;;;8.79;66.16
33286;BME280;19656;50.096;20.014;2023-02-18T16:07:48;98252.33;;;8.70;66.96
33286;BME280;19656;50.096;20.014;2023-02-18T16:12:57;98246.54;;;8.72;67.30
33286;BME280;19656;50.096;20.014;2023-02-18T16:18:06;98240.36;;;8.72;67.50
33286;BME280;19656;50.096;20.014;2023-02-18T16:23:55;98238.17;;;8.70;67.83
33286;BME280;19656;50.096;20.014;2023-02-18T16:29:35;98237.40;;;8.74;68.32
33286;BME280;19656;50.096;20.014;2023-02-18T16:34:39;98228.10;;;8.84;68.47
33286;BME280;19656;50.096;20.014;2023-02-18T16:39:43;98220.88;;;8.99;68.53
33286;BME280;19656;50.096;20.014;2023-02-18T16:44:47;98214.57;;;9.06;68.45
33286;BME280;19656;50.096;20.014;2023-02-18T16:49:55;98225.57;;;9.08;68.15
33286;BME280;19656;50.096;20.014;2023-02-18T16:56:21;98220.26;;;8.98;68.95
33286;BME280;19656;50.096;20.014;2023-02-18T17:01:28;98226.27;;;8.92;69.47
33286;BME280;19656;50.096;20.014;2023-02-18T17:06:33;98223.52;;;8.91;69.89
33286;BME280;19656;50.096;20.014;2023-02-18T17:12:16;98231.83;;;8.96;70.44
33286;BME280;19656;50.096;20.014;2023-02-18T17:17:19;98224.04;;;9.09;70.91
33286;BME280;19656;50.096;20.014;2023-02-18T17:22:35;98215.04;;;9.17;71.51
33286;BME280;19656;50.096;20.014;2023-02-18T17:28:15;98214.73;;;9.29;71.43
33286;BME280;19656;50.096;20.014;2023-02-18T17:33:22;98214.84;;;9.30;71.94
33286;BME280;19656;50.096;20.014;2023-02-18T17:38:59;98209.66;;;9.36;72.89
33286;BME280;19656;50.096;20.014;2023-02-18T17:44:40;98205.61;;;9.48;73.71
33286;BME280;19656;50.096;20.014;2023-02-18T17:55:59;98204.91;;;9.92;75.31
33286;BME280;19656;50.096;20.014;2023-02-18T18:01:08;98203.48;;;10.16;75.06
33286;BME280;19656;50.096;20.014;2023-02-18T18:06:18;98208.20;;;10.30;74.81
33286;BME280;19656;50.096;20.014;2023-02-18T18:11:25;98223.89;;;10.43;74.81
33286;BME280;19656;50.096;20.014;2023-02-18T18:31:01;98248.58;;;10.59;74.46
33286;BME280;19656;50.096;20.014;2023-02-18T18:36:24;98239.77;;;10.63;74.13
33286;BME280;19656;50.096;20.014;2023-02-18T18:47:41;98254.19;;;10.64;73.62
33286;BME280;19656;50.096;20.014;2023-02-18T18:53:31;98265.60;;;10.66;73.07
33286;BME280;19656;50.096;20.014;2023-02-18T19:05:58;98269.05;;;10.72;72.73
33286;BME280;19656;50.096;20.014;2023-02-18T19:11:03;98272.38;;;10.73;72.12
33286;BME280;19656;50.096;20.014;2023-02-18T19:16:26;98279.66;;;10.75;71.53
33286;BME280;19656;50.096;20.014;2023-02-18T19:21:31;98275.73;;;10.78;71.35
33286;BME280;19656;50.096;20.014;2023-02-18T19:26:35;98277.73;;;10.77;71.27
33286;BME280;19656;50.096;20.014;2023-02-18T19:31:39;98292.29;;;10.77;70.76
33286;BME280;19656;50.096;20.014;2023-02-18T19:36:43;98301.85;;;10.77;70.27
33286;BME280;19656;50.096;20.014;2023-02-18T19:41:48;98298.36;;;10.74;70.29
33286;BME280;19656;50.096;20.014;2023-02-18T19:46:53;98307.58;;;10.74;69.60
33286;BME280;19656;50.096;20.014;2023-02-18T19:51:57;98318.54;;;10.72;68.74
33286;BME280;19656;50.096;20.014;2023-02-18T19:57:06;98317.96;;;10.70;68.58
33286;BME280;19656;50.096;20.014;2023-02-18T20:02:18;98333.70;;;10.71;68.04
33286;BME280;19656;50.096;20.014;2023-02-18T20:07:23;98331.13;;;10.70;67.67
33286;BME280;19656;50.096;20.014;2023-02-18T20:12:27;98345.28;;;10.66;67.69
33286;BME280;19656;50.096;20.014;2023-02-18T20:17:31;98345.46;;;10.53;67.77
33286;BME280;19656;50.096;20.014;2023-02-18T20:22:35;98352.47;;;10.55;67.96
33286;BME280;19656;50.096;20.014;2023-02-18T20:27:39;98357.02;;;10.53;68.10
33286;BME280;19656;50.096;20.014;2023-02-18T20:33:01;98369.83;;;10.48;68.17
33286;BME280;19656;50.096;20.014;2023-02-18T20:38:06;98382.44;;;10.48;68.32
33286;BME280;19656;50.096;20.014;2023-02-18T20:43:09;98398.75;;;10.47;68.72
33286;BME280;19656;50.096;20.014;2023-02-18T20:48:12;98412.73;;;10.43;69.18
33286;BME280;19656;50.096;20.014;2023-02-18T20:53:16;98417.60;;;10.39;69.61
33286;BME280;19656;50.096;20.014;2023-02-18T20:58:20;98423.41;;;10.32;69.57
33286;BME280;19656;50.096;20.014;2023-02-18T21:03:23;98442.85;;;10.23;70.03
33286;BME280;19656;50.096;20.014;2023-02-18T21:08:27;98458.56;;;10.16;70.68
33286;BME280;19656;50.096;20.014;2023-02-18T21:13:32;98472.78;;;10.18;71.05
33286;BME280;19656;50.096;20.014;2023-02-18T21:18:35;98458.87;;;10.14;70.67
33286;BME280;19656;50.096;20.014;2023-02-18T21:23:39;98463.81;;;10.04;70.95
33286;BME280;19656;50.096;20.014;2023-02-18T21:28:52;98466.08;;;10.02;70.75
33286;BME280;19656;50.096;20.014;2023-02-18T21:33:56;98477.48;;;10.06;70.79
33286;BME280;19656;50.096;20.014;2023-02-18T21:39:03;98492.29;;;10.08;70.21
33286;BME280;19656;50.096;20.014;2023-02-18T21:44:07;98491.08;;;10.12;70.00
33286;BME280;19656;50.096;20.014;2023-02-18T21:49:11;98493.23;;;10.15;69.84
33286;BME280;19656;50.096;20.014;2023-02-18T21:54:16;98504.24;;;10.09;69.73
33286;BME280;19656;50.096;20.014;2023-02-18T21:59:20;98511.62;;;9.99;69.92
33286;BME280;19656;50.096;20.014;2023-02-18T22:04:24;98529.10;;;10.01;69.86
33286;BME280;19656;50.096;20.014;2023-02-18T22:09:28;98535.09;;;10.04;69.70
33286;BME280;19656;50.096;20.014;2023-02-18T22:14:31;98548.70;;;9.99;69.50
33286;BME280;19656;50.096;20.014;2023-02-18T22:19:35;98551.20;;;9.85;69.98
33286;BME280;19656;50.096;20.014;2023-02-18T22:24:39;98543.89;;;9.76;70.13
33286;BME280;19656;50.096;20.014;2023-02-18T22:29:42;98553.64;;;9.73;70.52
33286;BME280;19656;50.096;20.014;2023-02-18T22:34:46;98564.09;;;9.70;70.19
33286;BME280;19656;50.096;20.014;2023-02-18T22:39:50;98574.34;;;9.65;70.40
33286;BME280;19656;50.096;20.014;2023-02-18T22:44:53;98592.11;;;9.62;70.29
33286;BME280;19656;50.096;20.014;2023-02-18T22:49:59;98604.38;;;9.58;69.95
33286;BME280;19656;50.096;20.014;2023-02-18T22:55:03;98598.77;;;9.49;69.46
33286;BME280;19656;50.096;20.014;2023-02-18T23:00:08;98605.71;;;9.48;69.23
33286;BME280;19656;50.096;20.014;2023-02-18T23:05:12;98611.39;;;9.48;69.41
33286;BME280;19656;50.096;20.014;2023-02-18T23:10:16;98621.48;;;9.48;69.38
33286;BME280;19656;50.096;20.014;2023-02-18T23:15:20;98625.89;;;9.46;69.68
33286;BME280;19656;50.096;20.014;2023-02-18T23:20:23;98641.33;;;9.51;69.86
33286;BME280;19656;50.096;20.014;2023-02-18T23:25:45;98654.52;;;9.58;69.65
33286;BME280;19656;50.096;20.014;2023-02-18T23:30:49;98668.92;;;9.52;69.58
33286;BME280;19656;50.096;20.014;2023-02-18T23:35:52;98674.99;;;9.53;70.12
33286;BME280;19656;50.096;20.014;2023-02-18T23:40:56;98685.71;;;9.55;70.11
33286;BME280;19656;50.096;20.014;2023-02-18T23:45:59;98693.67;;;9.49;70.20
33286;BME280;19656;50.096;20.014;2023-02-18T23:51:05;98699.77;;;9.42;70.18
